ADDS METAR Data INFO
IDs: Format: Raw Decoded Include TAF

Data at: 2023 UTC 22 Apr 2018

METAR for:KLHQ (Lancaster/Fairfield, OH, US)
Text:KLHQ 221953Z AUTO 05009KT 10SM CLR 18/M02 A3024 RMK AO2 SLP242 T01831017
Temperature: 18.3°C ( 65°F)
Dewpoint: -1.7°C ( 29°F) [RH = 26%]
Pressure (altimeter):30.24 inches Hg (1024.1 mb) [Sea level pressure: 1024.2 mb]
Winds:from the NE (50 degrees) at 10 MPH (9 knots; 4.6 m/s)
Visibility:10 or more sm (16+ km)
Ceiling:at least 12,000 feet AGL
Clouds:sky clear below 12,000 feet AGL
QC Flag:automated observation with no human augmentation